Latest Weather Observations for Bathurst Airport

IDN60801

Issued at 9:32 am EST Wednesday 1 July 2015 (issued every 30 minutes, with the page automatically refreshed every 10 minutes)

About weather observations | Map of weather stations | Latest weather observations for NSW | Other Formats
Station Details ID: 063291 Name: BATHURST AIRPORT AWS Lat: -33.41 Lon: 149.65 Height: 744.5 m
Data from the previous 72 hours. | See also: Recent months for locations in New South Wales
Date/Time
EST
Temp
°C
App
Temp
°C
Dew
Point
Rel
Hum
%
Delta-T
°C
Wind Press
QNH
hPa
Press
MSL
hPa
Rain
since 9 am
mm
Dir
 
Spd
km/h
Gust
km/h
Spd
kts
Gust
kts
01/09:30am 4.7 0.5 1.6 80 1.3 SW 13 17 7 9 1026.7 1027.4 0.0
01/09:09am 4.0 -0.1 2.0 87 0.8 SW 13 15 7 8 1026.7 1027.4 0.0
01/09:00am 4.1 0.4 2.6 90 0.6 SW 11 13 6 7 1026.6 1027.3 0.8
01/08:58am 4.2 0.6 3.2 93 0.4 SW 11 13 6 7 1026.6 1027.3 0.8
01/08:30am 3.7 0.6 3.4 98 0.1 WSW 9 9 5 5 1026.5 1027.2 0.8
01/08:00am 3.7 0.6 3.4 98 0.1 SW 9 11 5 6 1026.5 1027.2 0.8
01/07:30am 4.0 0.6 3.9 99 0.0 SW 11 13 6 7 1026.2 1026.9 0.8
01/07:00am 4.2 0.8 4.1 99 0.0 SW 11 17 6 9 1026.1 1026.8 0.8
01/06:30am 4.5 0.8 4.5 100 0.0 WSW 13 15 7 8 1025.7 1026.4 0.8
01/06:00am 4.7 2.2 4.7 100 0.0 WSW 7 9 4 5 1025.4 1026.1 0.8
01/05:30am 4.9 2.6 4.9 100 0.0 S 6 7 3 4 1025.3 1026.0 0.8
01/05:16am 4.7 3.5 4.7 100 0.0 CALM 0 6 0 3 1025.3 1026.0 0.8
01/05:00am 4.4 2.0 4.4 100 0.0 WSW 6 7 3 4 1025.3 1026.0 0.8
01/04:47am 4.3 1.9 4.3 100 0.0 WSW 6 7 3 4 1025.3 1026.0 0.8
01/04:40am 4.2 1.6 4.2 100 0.0 WSW 7 9 4 5 1025.3 1026.0 0.8
01/04:30am 4.2 1.6 4.1 99 0.0 WSW 7 9 4 5 1025.3 1026.0 0.8
01/04:00am 5.0 2.7 5.0 100 0.0 WSW 6 9 3 5 1025.4 1026.1 0.6
01/03:30am 5.1 2.8 5.0 99 0.0 WSW 6 6 3 3 1025.5 1026.2 0.6
01/03:00am 5.4 3.0 5.3 99 0.0 ESE 7 11 4 6 1025.5 1026.2 0.6
01/02:30am 5.5 2.8 5.4 99 0.0 S 9 11 5 6 1025.8 1026.6 0.4
01/02:00am 5.6 3.3 5.5 99 0.0 SW 7 9 4 5 1026.2 1026.9 0.0
01/01:30am 5.7 4.6 5.1 96 0.3 CALM 0 0 0 0 1026.1 1026.8 0.0
01/01:00am 6.1 3.9 5.2 94 0.4 S 6 7 3 4 1026.3 1027.0 0.0
01/12:30am 6.1 3.9 6.0 99 0.0 SW 7 9 4 5 1026.5 1027.2 0.0
01/12:00am 6.5 4.4 5.9 96 0.3 WSW 6 6 3 3 1026.5 1027.2 0.0
 
Date/Time
EST
Temp
°C
App
Temp
°C
Dew
Point
Rel
Hum
%
Delta-T
°C
Wind Press
QNH
hPa
Press
MSL
hPa
Rain
since 9 am
mm
Dir
 
Spd
km/h
Gust
km/h
Spd
kts
Gust
kts
30/11:30pm 6.5 4.8 6.1 97 0.2 SW 4 7 2 4 1026.8 1027.5 0.0
30/11:00pm 6.4 5.4 5.8 96 0.3 CALM 0 0 0 0 1026.8 1027.5 0.0
30/10:30pm 6.8 5.7 5.3 90 0.7 CALM 0 0 0 0 1026.8 1027.5 0.0
30/10:27pm 6.8 5.7 5.3 90 0.7 CALM 0 0 0 0 1026.9 1027.7 0.0
30/10:00pm 6.8 5.9 5.9 94 0.4 CALM 0 0 0 0 1027.0 1027.8 0.0
30/09:30pm 6.8 5.9 6.1 95 0.3 CALM 0 0 0 0 1027.1 1027.9 0.0
30/09:22pm 6.7 5.8 6.1 96 0.3 CALM 0 0 0 0 1027.2 1028.0 0.0
30/09:00pm 6.8 4.7 5.9 94 0.4 SW 6 7 3 4 1027.1 1027.9 0.0
30/08:30pm 7.0 6.0 5.8 92 0.6 CALM 0 9 0 5 1027.0 1027.8 0.0
30/08:00pm 7.2 3.8 6.0 92 0.6 SW 13 15 7 8 1027.0 1027.8 0.0
30/07:30pm 7.2 3.9 6.3 94 0.4 SW 13 17 7 9 1027.0 1027.8 0.0
30/07:00pm 8.0 4.3 6.3 89 0.8 SW 15 19 8 10 1027.0 1027.8 0.0
30/06:30pm 9.0 6.3 5.6 79 1.6 NNW 9 11 5 6 1026.7 1027.4 0.0
30/06:00pm 9.6 6.6 5.8 77 1.8 NNW 11 13 6 7 1026.3 1027.0 0.0
30/05:30pm 10.4 6.6 5.6 72 2.3 NNW 15 17 8 9 1026.2 1026.9 0.0
30/05:00pm 11.1 8.0 5.4 68 2.7 NNW 11 13 6 7 1025.7 1026.4 0.0
30/04:30pm 11.6 8.5 5.5 66 2.9 NW 11 15 6 8 1025.9 1026.7 0.0
30/04:00pm 12.3 8.8 5.5 63 3.3 NNW 13 17 7 9 1026.1 1026.8 0.0
30/03:30pm 12.3 8.7 5.2 62 3.4 NNW 13 17 7 9 1025.8 1026.6 0.0
30/03:00pm 12.9 8.5 4.6 57 3.9 N 17 22 9 12 1025.8 1026.6 0.0
30/02:30pm 14.0 9.5 4.3 52 4.6 NNW 17 24 9 13 1025.8 1026.6 0.0
30/02:00pm 14.6 10.3 5.1 53 4.6 NNW 17 22 9 12 1026.1 1026.8 0.0
30/01:30pm 14.0 11.5 6.4 60 3.8 NNE 9 13 5 7 1026.2 1026.9 0.0
30/01:00pm 12.9 10.7 6.0 63 3.4 WNW 7 11 4 6 1026.9 1027.7 0.0
30/12:30pm 11.7 9.5 6.4 70 2.6 W 7 11 4 6 1027.4 1028.2 0.0
30/12:00pm 10.2 8.5 5.8 74 2.1 SW 4 7 2 4 1028.1 1028.9 0.0
30/11:30am 8.9 6.6 5.5 79 1.6 SW 7 9 4 5 1028.4 1029.2 0.0
30/11:00am 7.8 5.7 5.8 87 0.9 WSW 6 9 3 5 1029.0 1029.7 0.0
30/10:30am 6.5 4.2 5.5 93 0.5 SW 7 11 4 6 1029.3 1030.1 0.0
30/10:00am 5.1 2.3 5.0 99 0.0 SW 9 11 5 6 1029.6 1030.4 0.0
30/09:30am 3.9 1.4 3.9 100 0.0 W 6 7 3 4 1029.7 1030.5 0.0
30/09:00am 3.7 1.9 3.7 100 0.0 NNE 2 9 1 5 1029.7 1030.5 0.0
30/08:30am 2.4 -0.5 2.4 100 0.0 ENE 7 9 4 5 1029.7 1030.5 0.0
30/08:13am 1.7 -0.8 1.7 100 0.0 ESE 4 7 2 4 1029.6 1030.4 0.0
30/08:00am 1.2 -0.6 1.2 100 0.0 CALM 0 0 0 0 1029.9 1030.7 0.0
30/07:51am 1.1 -0.7 1.1 100 0.0 CALM 0 0 0 0 1030.0 1030.8 0.0
30/07:48am 1.1 -0.7 1.1 100 0.0 CALM 0 0 0 0 1029.9 1030.7 0.0
30/07:30am 0.4 -1.5 0.3 99 0.0 CALM 0 0 0 0 1029.7 1030.5 0.0
30/07:14am 0.6 -2.6 0.6 100 0.0 SW 7 9 4 5 1029.5 1030.3 0.0
30/07:00am 0.8 -2.2 0.8 100 0.0 SSW 6 7 3 4 1029.5 1030.3 0.0
30/06:30am 0.7 -1.2 0.7 100 0.0 CALM 0 0 0 0 1029.2 1029.9 0.0
30/06:28am 0.7 -1.2 0.7 100 0.0 CALM 0 0 0 0 1029.2 1029.9 0.0
30/06:00am 0.3 -1.6 0.3 100 0.0 CALM 0 0 0 0 1029.0 1029.7 0.0
30/05:30am 0.2 -2.5 0.2 100 0.0 SW 4 6 2 3 1028.8 1029.6 0.0
30/05:00am 0.0 -3.3 -0.1 99 0.0 SW 7 9 4 5 1028.7 1029.5 0.0
30/04:53am 0.1 -3.2 0.0 99 0.0 SW 7 9 4 5 1028.7 1029.5 0.0
30/04:30am 0.5 -2.7 0.5 100 0.0 SSW 7 9 4 5 1028.3 1029.1 0.0
30/04:12am 0.6 -2.4 0.6 100 0.0 SSW 6 9 3 5 1028.3 1029.1 0.0
30/04:00am 0.2 -1.8 0.2 100 0.0 CALM 0 0 0 0 1028.4 1029.2 0.0
30/03:40am 0.6 -1.3 0.6 100 0.0 CALM 0 0 0 0 1028.5 1029.3 0.0
30/03:30am 1.0 -0.8 1.0 100 0.0 CALM 0 0 0 0 1028.7 1029.5 0.0
30/03:00am 1.2 -0.6 1.2 100 0.0 CALM 0 0 0 0 1029.1 1029.8 0.0
30/02:36am 0.7 -1.2 0.6 99 0.0 CALM 0 0 0 0 1029.2 1029.9 0.0
30/02:30am 0.6 -1.3 0.5 99 0.0 CALM 0 2 0 1 1029.2 1029.9 0.0
30/02:05am 0.4 -2.7 0.3 99 0.0 SSW 6 7 3 4 1029.2 1029.9 0.0
30/02:00am 0.3 -2.8 0.2 99 0.0 SSW 6 7 3 4 1029.2 1029.9 0.0
30/01:46am 1.2 -1.8 1.1 99 0.0 S 6 7 3 4 1029.1 1029.8 0.0
30/01:30am 1.9 0.2 1.8 99 0.0 CALM 0 0 0 0 1029.3 1030.1 0.0
30/01:20am 1.6 -0.2 1.5 99 0.0 CALM 0 0 0 0 1029.3 1030.1 0.0
30/01:00am 1.3 -0.5 1.2 99 0.0 CALM 0 0 0 0 1029.4 1030.2 0.0
30/12:30am 2.5 -0.2 2.4 99 0.0 ESE 6 7 3 4 1029.4 1030.2 0.0
30/12:00am 2.6 -0.1 2.5 99 0.0 ESE 6 7 3 4 1029.7 1030.5 0.0
 
Date/Time
EST
Temp
°C
App
Temp
°C
Dew
Point
Rel
Hum
%
Delta-T
°C
Wind Press
QNH
hPa
Press
MSL
hPa
Rain
since 9 am
mm
Dir
 
Spd
km/h
Gust
km/h
Spd
kts
Gust
kts
29/11:30pm 3.2 1.7 3.1 99 0.0 CALM 0 4 0 2 1029.8 1030.6 0.0
29/11:00pm 4.0 1.5 3.9 99 0.0 SE 6 7 3 4 1029.8 1030.6 0.0
29/10:30pm 4.3 1.8 3.9 97 0.2 SSE 6 7 3 4 1030.2 1031.0 0.0
29/10:00pm 4.6 1.6 4.3 98 0.1 SSE 9 11 5 6 1030.3 1031.2 0.0
29/09:30pm 4.0 1.4 3.4 96 0.3 E 6 7 3 4 1030.6 1031.4 0.0
29/09:00pm 5.6 4.5 4.9 95 0.3 CALM 0 4 0 2 1030.7 1031.5 0.0
29/08:30pm 5.9 3.4 4.9 93 0.5 NNE 7 9 4 5 1030.6 1031.4 0.0
29/08:00pm 5.6 2.6 4.1 90 0.7 NE 9 11 5 6 1030.5 1031.3 0.0
29/07:30pm 6.3 3.3 4.3 87 0.9 NE 9 11 5 6 1030.3 1031.2 0.0
29/07:00pm 7.1 3.8 4.6 84 1.1 NE 11 13 6 7 1030.2 1031.0 0.0
29/06:30pm 7.5 4.4 3.6 76 1.7 NE 9 11 5 6 1030.2 1031.0 0.0
29/06:00pm 8.8 5.7 3.6 70 2.3 NE 9 11 5 6 1030.1 1030.9 0.0
29/05:30pm 10.0 7.3 3.7 65 2.9 NNE 7 9 4 5 1029.8 1030.6 0.0
29/05:00pm 11.0 8.5 4.0 62 3.2 N 6 7 3 4 1029.6 1030.4 0.0
29/04:30pm 13.1 10.1 4.3 55 4.2 N 9 11 5 6 1029.5 1030.3 0.0
29/04:00pm 14.2 11.4 3.4 48 5.1 NNW 7 11 4 6 1029.3 1030.1 0.0
29/03:30pm 14.9 12.8 4.0 48 5.2 NNW 4 9 2 5 1029.3 1030.1 0.0
29/03:00pm 14.3 12.8 5.1 54 4.5 W 2 7 1 4 1029.3 1030.1 0.0
29/02:30pm 14.1 11.9 5.2 55 4.3 NW 6 11 3 6 1029.2 1029.9 0.0
29/02:00pm 14.1 12.1 6.2 59 3.9 N 6 11 3 6 1029.5 1030.3 0.0
29/01:30pm 13.1 11.3 5.3 59 3.8 W 4 9 2 5 1029.7 1030.5 0.0
29/01:00pm 12.2 10.0 5.1 62 3.4 W 6 9 3 5 1030.3 1031.2 0.0
29/12:30pm 11.1 8.7 5.4 68 2.7 W 7 9 4 5 1030.7 1031.5 0.0
29/12:00pm 9.7 7.4 5.9 77 1.8 WSW 7 9 4 5 1031.1 1031.9 0.0
29/11:30am 8.0 5.8 6.3 89 0.8 SW 7 9 4 5 1031.7 1032.6 0.0
29/11:00am 5.9 3.8 5.8 99 0.0 W 6 9 3 5 1032.5 1033.3 0.0
29/10:34am 5.1 2.9 5.1 100 0.0 SW 6 7 3 4 1032.7 1033.6 0.0
29/10:30am 4.8 2.9 4.8 100 0.0 SW 4 7 2 4 1032.7 1033.6 0.0
29/10:16am 4.5 3.3 4.5 100 0.0 CALM 0 0 0 0 1033.0 1033.9 0.0
29/10:00am 3.4 2.0 3.4 100 0.0 CALM 0 0 0 0 1033.0 1033.9 0.0
29/09:30am 0.1 -1.9 0.1 100 0.0 CALM 0 0 0 0 1033.4 1034.2 0.0
29/09:00am -0.8 -2.9 -0.9 99 0.0 CALM 0 0 0 0 1033.4 1034.2 0.0
29/08:58am -0.8 -2.9 -0.9 99 0.0 CALM 0 0 0 0 1033.4 1034.2 0.0
29/08:30am -1.7 -3.9 -1.8 99 0.0 CALM 0 0 0 0 1033.1 1034.0 0.0
29/08:23am -1.8 -4.0 -1.9 99 0.0 CALM 0 0 0 0 1033.0 1033.9 0.0
29/08:00am -1.8 -4.0 -1.9 99 0.0 CALM 0 0 0 0 1033.0 1033.9 0.0
29/07:48am -2.1 -4.4 -2.2 99 -0.1 CALM 0 0 0 0 1033.0 1033.9 0.0
29/07:30am -2.1 -4.4 -2.2 99 -0.1 CALM 0 0 0 0 1032.8 1033.7 0.0
29/07:00am -1.5 -3.7 -1.6 99 0.0 CALM 0 0 0 0 1032.5 1033.3 0.0
29/06:30am -0.6 -4.4 -0.7 99 0.0 SSE 9 11 5 6 1032.3 1033.1 0.0
29/06:03am -0.1 -2.1 -0.2 99 0.0 CALM 0 0 0 0 1032.4 1033.2 0.0
29/06:00am -0.2 -2.2 -0.3 99 0.0 CALM 0 0 0 0 1032.4 1033.2 0.0
29/05:54am -0.2 -2.2 -0.3 99 0.0 CALM 0 0 0 0 1032.5 1033.3 0.0
29/05:30am -0.9 -4.4 -1.0 99 0.0 ENE 7 9 4 5 1032.3 1033.1 0.0
29/05:00am -1.2 -4.7 -1.3 99 0.0 ENE 7 9 4 5 1032.2 1033.0 0.0
29/04:30am -0.9 -3.4 -1.0 99 0.0 SSW 2 7 1 4 1032.1 1032.9 0.0
29/04:00am -0.8 -2.9 -0.9 99 0.0 CALM 0 0 0 0 1032.2 1033.0 0.0
29/03:30am -1.6 -3.8 -1.7 99 0.0 CALM 0 0 0 0 1032.2 1033.0 0.0
29/03:16am -1.0 -3.1 -1.1 99 0.0 CALM 0 0 0 0 1032.1 1032.9 0.0
29/03:00am -1.2 -3.4 -1.3 99 0.0 CALM 0 0 0 0 1032.1 1032.9 0.0
29/02:30am -0.9 -4.4 -1.0 99 0.0 SSW 7 9 4 5 1032.1 1032.9 0.0
29/02:00am -1.2 -4.7 -1.3 99 0.0 WSW 7 9 4 5 1032.2 1033.0 0.0
29/01:30am -0.8 -4.6 -0.9 99 0.0 SSW 9 9 5 5 1032.2 1033.0 0.0
29/01:00am -0.2 -3.0 -0.3 99 0.0 SSW 4 7 2 4 1032.2 1033.0 0.0
29/12:30am 1.3 -0.5 1.2 99 0.0 CALM 0 0 0 0 1032.2 1033.0 0.0
29/12:00am 0.0 -2.1 -1.1 92 0.4 CALM 0 0 0 0 1032.4 1033.2 0.0
 
Date/Time
EST
Temp
°C
App
Temp
°C
Dew
Point
Rel
Hum
%
Delta-T
°C
Wind Press
QNH
hPa
Press
MSL
hPa
Rain
since 9 am
mm
Dir
 
Spd
km/h
Gust
km/h
Spd
kts
Gust
kts
28/11:30pm 0.9 -2.6 -1.5 84 0.9 SSW 7 7 4 4 1032.5 1033.3 0.0
28/11:00pm 1.7 -0.8 -0.7 84 0.9 SSE 2 9 1 5 1032.4 1033.2 0.0
28/10:30pm 1.8 -0.2 -0.1 87 0.7 CALM 0 0 0 0 1032.4 1033.2 0.0
28/10:00pm 1.6 -0.4 -0.3 87 0.7 CALM 0 0 0 0 1032.4 1033.2 0.0
28/09:30pm 1.1 -1.2 -2.0 80 1.2 CALM 0 6 0 3 1032.5 1033.3 0.0
28/09:00pm 2.3 -1.0 -1.1 78 1.3 S 6 9 3 5 1032.3 1033.1 0.0
28/08:30pm 1.6 -1.5 -2.5 74 1.5 N 4 7 2 4 1032.3 1033.1 0.0
28/08:00pm 3.0 -0.5 -2.5 67 2.0 ENE 6 9 3 5 1032.0 1032.8 0.0
28/07:30pm 4.7 1.4 -0.1 71 1.9 SE 7 9 4 5 1031.7 1032.6 0.0
28/07:00pm 5.1 1.4 -0.3 68 2.1 E 9 11 5 6 1031.4 1032.2 0.0
28/06:30pm 5.4 1.3 -0.4 66 2.3 E 11 13 6 7 1031.2 1032.0 0.0
28/06:00pm 6.0 2.3 -0.1 65 2.4 ENE 9 9 5 5 1030.9 1031.7 0.0
28/05:30pm 8.6 6.1 -3.6 42 4.7 CALM 0 0 0 0 1030.8 1031.6 0.0
28/05:00pm 10.1 7.9 -1.6 44 4.7 CALM 0 0 0 0 1030.8 1031.6 0.0
28/04:30pm 11.4 9.2 -1.4 41 5.3 CALM 0 0 0 0 1030.8 1031.6 0.0
28/04:00pm 12.1 9.5 -1.4 39 5.6 NW 2 6 1 3 1030.9 1031.7 0.0
28/03:30pm 12.3 9.7 0.7 45 5.1 NW 4 7 2 4 1030.9 1031.7 0.0
28/03:00pm 11.9 8.6 -1.6 39 5.5 NNW 6 9 3 5 1030.9 1031.7 0.0
28/02:30pm 11.3 8.0 -0.2 45 4.9 N 7 11 4 6 1030.9 1031.7 0.0
28/02:00pm 10.6 7.8 1.9 55 3.8 N 6 9 3 5 1031.0 1031.8 0.0
28/01:30pm 9.4 6.9 3.8 68 2.6 NNW 6 9 3 5 1031.2 1032.0 0.0
28/01:00pm 8.1 6.1 4.5 78 1.6 NW 4 9 2 5 1031.5 1032.4 0.0
28/12:30pm 7.0 4.7 4.7 85 1.1 NW 6 9 3 5 1031.9 1032.7 0.0
28/12:00pm 5.4 3.5 5.0 97 0.2 NNW 4 7 2 4 1032.3 1033.1 0.0
28/11:30am 3.6 1.1 3.6 100 0.0 WNW 6 7 3 4 1032.7 1033.6 0.0
28/11:22am 3.0 1.1 3.0 100 0.0 WNW 2 7 1 4 1032.8 1033.7 0.0
28/11:10am 2.3 0.3 2.3 100 0.0 W 2 7 1 4 1032.9 1033.8 0.0
28/11:00am 0.9 -1.3 0.9 100 0.0 WSW 2 7 1 4 1033.1 1034.0 0.0
28/10:30am 0.4 -2.7 0.4 100 0.0 WNW 6 7 3 4 1033.4 1034.2 0.0
28/10:00am -0.4 -3.2 -0.4 100 0.0 WNW 4 7 2 4 1033.5 1034.3 0.0

Other Formats:

Comma delimited format used in spreadsheet applications
http://www.bom.gov.au/fwo/IDN60801/IDN60801.94729.axf

JavaScript Object Notation format (JSON) in row-major order
http://www.bom.gov.au/fwo/IDN60801/IDN60801.94729.json